createdAt,value
2018-12-26T00:02:24.590Z,19.77
2018-12-26T00:04:55.514Z,17.10
2018-12-26T00:07:26.455Z,17.83
2018-12-26T00:09:57.441Z,17.10
2018-12-26T00:12:28.659Z,17.83
2018-12-26T00:14:59.559Z,19.20
2018-12-26T00:17:30.864Z,17.90
2018-12-26T00:20:01.890Z,18.73
2018-12-26T00:22:32.913Z,16.60
2018-12-26T00:25:03.912Z,17.73
2018-12-26T00:27:34.879Z,17.47
2018-12-26T00:30:06.011Z,17.80
2018-12-26T00:32:37.287Z,18.50
2018-12-26T00:35:08.269Z,16.27
2018-12-26T00:37:39.509Z,16.33
2018-12-26T00:40:10.388Z,16.43
2018-12-26T00:42:41.608Z,17.43
2018-12-26T00:45:12.484Z,16.13
2018-12-26T00:47:43.425Z,17.10
2018-12-26T00:50:14.320Z,16.43
2018-12-26T00:52:45.318Z,17.13
2018-12-26T00:55:16.219Z,16.87
2018-12-26T00:57:47.128Z,16.23
2018-12-26T01:00:18.360Z,15.70
2018-12-26T01:02:49.320Z,16.07
2018-12-26T01:05:20.207Z,15.23
2018-12-26T01:07:51.134Z,14.90
2018-12-26T01:10:22.308Z,15.23
2018-12-26T01:12:53.245Z,15.53
2018-12-26T01:15:24.125Z,15.73
2018-12-26T01:17:55.009Z,16.37
2018-12-26T01:20:25.957Z,15.97
2018-12-26T01:22:56.851Z,14.77
2018-12-26T01:25:27.811Z,15.40
2018-12-26T01:27:58.680Z,16.70
2018-12-26T01:30:35.542Z,16.30
2018-12-26T01:33:06.462Z,15.53
2018-12-26T01:35:37.380Z,16.20
2018-12-26T01:38:08.340Z,15.23
2018-12-26T01:40:39.225Z,14.67
2018-12-26T01:43:10.459Z,14.60
2018-12-26T01:45:41.329Z,14.60
2018-12-26T01:48:12.204Z,14.53
2018-12-26T01:50:43.105Z,13.60
2018-12-26T01:53:13.984Z,12.90
2018-12-26T01:55:44.924Z,14.70
2018-12-26T01:58:15.802Z,14.73
2018-12-26T02:00:46.714Z,14.00
2018-12-26T02:03:17.616Z,15.07
2018-12-26T02:05:48.781Z,14.50
2018-12-26T02:08:19.861Z,14.80
2018-12-26T02:10:50.775Z,14.40
2018-12-26T02:13:21.709Z,14.13
2018-12-26T02:15:52.596Z,14.53
2018-12-26T02:18:23.468Z,14.93
2018-12-26T02:20:56.109Z,14.23
2018-12-26T02:23:27.027Z,14.60
2018-12-26T02:25:58.239Z,13.60
2018-12-26T02:28:29.160Z,14.57
2018-12-26T02:31:00.095Z,13.80
2018-12-26T02:33:31.370Z,14.50
2018-12-26T02:36:02.257Z,13.20
2018-12-26T02:38:33.177Z,14.10
2018-12-26T02:41:04.058Z,13.50
2018-12-26T02:43:35.308Z,14.30
2018-12-26T02:46:06.196Z,14.67
2018-12-26T02:48:37.112Z,13.40
2018-12-26T02:51:08.343Z,14.27
2018-12-26T02:53:39.233Z,14.40
2018-12-26T02:56:10.444Z,15.43
2018-12-26T02:58:41.616Z,13.03
2018-12-26T03:01:12.612Z,14.50
2018-12-26T03:03:43.591Z,13.67
2018-12-26T03:06:14.794Z,15.03
2018-12-26T03:08:45.716Z,14.27
2018-12-26T03:11:16.880Z,13.60
2018-12-26T03:13:48.494Z,15.67
2018-12-26T03:16:19.625Z,14.87
2018-12-26T03:18:50.578Z,14.50
2018-12-26T03:21:21.457Z,14.93
2018-12-26T03:23:52.632Z,14.17
2018-12-26T03:26:23.550Z,13.87
2018-12-26T03:28:54.491Z,12.77
2018-12-26T03:31:25.429Z,13.10
2018-12-26T03:33:56.308Z,12.80
2018-12-26T03:36:27.290Z,14.27
2018-12-26T03:38:59.667Z,12.70
2018-12-26T03:41:31.532Z,11.40
2018-12-26T03:44:02.727Z,12.67
2018-12-26T03:46:35.707Z,14.73
2018-12-26T03:49:06.689Z,12.87
2018-12-26T03:51:37.863Z,13.63
2018-12-26T03:54:08.789Z,16.60
2018-12-26T03:56:39.669Z,14.00
2018-12-26T03:59:10.548Z,14.57
2018-12-26T04:01:41.433Z,14.00
2018-12-26T04:04:12.310Z,13.33
2018-12-26T04:06:43.597Z,15.00
2018-12-26T04:09:14.510Z,14.20
2018-12-26T04:11:45.579Z,14.70
2018-12-26T04:14:16.499Z,14.20
2018-12-26T04:16:47.422Z,13.97
2018-12-26T04:19:18.851Z,14.17
2018-12-26T04:21:49.795Z,15.30
2018-12-26T04:24:20.782Z,16.43
2018-12-26T04:26:51.986Z,14.27
2018-12-26T04:29:22.900Z,16.10
2018-12-26T04:31:54.109Z,14.70
2018-12-26T04:34:25.258Z,15.27
2018-12-26T04:36:56.137Z,14.83
2018-12-26T04:39:27.067Z,16.07
2018-12-26T04:41:58.060Z,14.30
2018-12-26T04:44:29.050Z,16.13
2018-12-26T04:46:59.942Z,17.40
2018-12-26T04:49:30.934Z,17.17
2018-12-26T04:52:01.906Z,16.80
2018-12-26T04:54:33.124Z,18.77
2018-12-26T04:57:04.024Z,17.47
2018-12-26T04:59:35.283Z,17.20
2018-12-26T05:02:06.289Z,18.00
2018-12-26T05:04:37.179Z,18.90
2018-12-26T05:07:08.093Z,18.30
2018-12-26T05:09:39.295Z,19.87
2018-12-26T05:12:10.176Z,20.80
2018-12-26T05:14:41.102Z,18.93
2018-12-26T05:17:12.017Z,20.90
2018-12-26T05:19:42.933Z,20.00
2018-12-26T05:22:13.833Z,20.50
2018-12-26T05:24:45.132Z,21.27
2018-12-26T05:27:16.025Z,19.97
2018-12-26T05:29:46.924Z,20.37
2018-12-26T05:32:17.938Z,20.47
2018-12-26T05:34:49.168Z,21.20
2018-12-26T05:37:20.045Z,19.83
2018-12-26T05:39:51.005Z,21.70
2018-12-26T05:42:22.232Z,21.27
2018-12-26T05:44:53.404Z,22.03
2018-12-26T05:47:24.290Z,20.73
2018-12-26T05:49:55.175Z,18.93
2018-12-26T05:52:26.102Z,20.43
2018-12-26T05:54:57.650Z,20.27
2018-12-26T05:57:28.585Z,20.23
2018-12-26T05:59:59.479Z,20.87
2018-12-26T06:02:30.344Z,19.73
2018-12-26T06:05:01.272Z,19.30
2018-12-26T06:07:32.194Z,19.43
2018-12-26T06:10:03.448Z,20.27
2018-12-26T06:12:34.335Z,19.40
2018-12-26T06:15:05.330Z,18.53
2018-12-26T06:17:36.447Z,21.50
2018-12-26T06:20:07.572Z,20.37
2018-12-26T06:22:38.494Z,17.87
2018-12-26T06:25:09.425Z,19.37
2018-12-26T06:27:40.373Z,19.13
2018-12-26T06:30:11.469Z,20.90
2018-12-26T06:32:42.470Z,19.70
2018-12-26T06:35:13.462Z,18.93
2018-12-26T06:37:44.347Z,19.83
2018-12-26T06:40:15.266Z,19.63
2018-12-26T06:42:46.199Z,20.20
2018-12-26T06:45:17.079Z,21.50
2018-12-26T06:47:48.161Z,20.10
2018-12-26T06:50:19.055Z,19.70
2018-12-26T06:52:49.978Z,21.27
2018-12-26T06:55:20.871Z,19.93
2018-12-26T06:57:59.902Z,21.83
2018-12-26T07:00:24.393Z,22.03
2018-12-26T07:02:55.273Z,20.60
2018-12-26T07:05:26.230Z,21.80
2018-12-26T07:07:57.155Z,20.00
2018-12-26T07:10:28.062Z,21.10
2018-12-26T07:12:59.538Z,22.50
2018-12-26T07:15:30.445Z,19.70
2018-12-26T07:18:01.381Z,21.30
2018-12-26T07:20:32.282Z,21.30
2018-12-26T07:23:03.174Z,21.03
2018-12-26T07:25:34.067Z,22.93
2018-12-26T07:28:09.252Z,22.90
2018-12-26T07:30:37.870Z,20.27
2018-12-26T07:33:08.778Z,22.07
2018-12-26T07:35:39.693Z,22.60
2018-12-26T07:38:10.626Z,21.30
2018-12-26T07:40:42.068Z,21.20
2018-12-26T07:43:13.079Z,22.97
2018-12-26T07:45:43.974Z,21.67
2018-12-26T07:48:14.947Z,22.70
2018-12-26T07:50:46.164Z,21.83
2018-12-26T07:53:17.337Z,23.03
2018-12-26T07:55:48.257Z,23.70
2018-12-26T07:58:19.136Z,22.30
2018-12-26T08:00:50.071Z,21.30
2018-12-26T08:03:21.258Z,22.40
2018-12-26T08:05:52.717Z,22.80
2018-12-26T08:08:23.624Z,20.23
2018-12-26T08:10:54.604Z,23.10
2018-12-26T08:13:25.543Z,20.23
2018-12-26T08:15:56.439Z,21.00
2018-12-26T08:18:27.551Z,21.20
2018-12-26T08:20:58.437Z,20.60
2018-12-26T08:23:29.324Z,20.10
2018-12-26T08:26:00.229Z,20.90
2018-12-26T08:28:31.118Z,21.20
2018-12-26T08:31:02.015Z,20.23
2018-12-26T08:33:32.904Z,20.77
2018-12-26T08:36:04.124Z,21.93
2018-12-26T08:38:35.314Z,18.70
2018-12-26T08:41:06.236Z,20.17
2018-12-26T08:43:37.419Z,19.57
2018-12-26T08:46:08.604Z,20.37
2018-12-26T08:48:39.502Z,19.17
2018-12-26T08:51:10.407Z,19.30
2018-12-26T08:53:41.632Z,19.37
2018-12-26T08:56:12.598Z,20.60
2018-12-26T08:58:43.474Z,19.60
2018-12-26T09:01:14.425Z,20.37
2018-12-26T09:03:45.305Z,21.53
2018-12-26T09:06:16.480Z,20.73
2018-12-26T09:08:47.391Z,22.80
2018-12-26T09:11:18.282Z,23.20
2018-12-26T09:13:49.281Z,21.77
2018-12-26T09:16:20.740Z,21.40
2018-12-26T09:18:51.640Z,21.93
2018-12-26T09:21:22.848Z,22.57
2018-12-26T09:23:53.732Z,22.47
2018-12-26T09:26:24.649Z,23.47
2018-12-26T09:28:55.527Z,24.33
2018-12-26T09:31:26.403Z,23.20
2018-12-26T09:33:57.650Z,25.40
2018-12-26T09:36:28.539Z,25.20
2018-12-26T09:39:00.063Z,25.80
2018-12-26T09:41:30.962Z,27.67
2018-12-26T09:44:01.924Z,27.13
2018-12-26T09:46:32.834Z,29.23
2018-12-26T09:49:03.721Z,30.87
2018-12-26T09:51:34.962Z,28.73
2018-12-26T09:54:05.864Z,30.40
2018-12-26T09:56:36.733Z,30.30
2018-12-26T09:59:07.661Z,31.60
2018-12-26T10:01:38.555Z,31.23
2018-12-26T10:04:09.536Z,30.67
2018-12-26T10:06:40.461Z,31.00
2018-12-26T10:09:11.344Z,32.60
2018-12-26T10:11:42.250Z,30.67
2018-12-26T10:14:13.174Z,31.37
2018-12-26T10:16:44.152Z,32.27
2018-12-26T10:19:15.071Z,31.60
2018-12-26T10:21:46.231Z,28.73
2018-12-26T10:24:17.164Z,29.83
2018-12-26T10:26:48.411Z,30.60
2018-12-26T10:29:19.343Z,29.63
2018-12-26T10:31:50.254Z,30.20
2018-12-26T10:34:21.419Z,28.87
2018-12-26T10:36:52.436Z,31.73
2018-12-26T10:39:23.341Z,30.87
2018-12-26T10:41:54.311Z,31.30
2018-12-26T10:44:25.252Z,35.30
2018-12-26T10:46:56.229Z,32.17
2018-12-26T10:49:27.137Z,30.70
2018-12-26T10:51:58.025Z,31.57
2018-12-26T10:54:29.049Z,32.20
2018-12-26T10:56:59.924Z,31.40
2018-12-26T10:59:31.081Z,32.23
2018-12-26T11:02:01.998Z,32.77
2018-12-26T11:04:33.186Z,35.07
2018-12-26T11:07:04.113Z,35.17
2018-12-26T11:09:35.031Z,34.40
2018-12-26T11:12:05.955Z,34.37
2018-12-26T11:14:37.305Z,34.90
2018-12-26T11:17:08.677Z,36.67
2018-12-26T11:19:39.716Z,35.97
2018-12-26T11:22:10.585Z,37.30
2018-12-26T11:24:41.469Z,40.70
2018-12-26T11:27:12.389Z,42.57
2018-12-26T11:29:43.856Z,38.27
2018-12-26T11:32:15.380Z,39.33
2018-12-26T11:34:46.288Z,38.53
2018-12-26T11:37:17.201Z,39.10
2018-12-26T11:39:48.541Z,38.00
2018-12-26T11:42:19.716Z,39.57
2018-12-26T11:44:50.671Z,38.90
2018-12-26T11:47:21.563Z,40.60
2018-12-26T11:49:52.483Z,40.53
2018-12-26T11:52:23.418Z,40.83
2018-12-26T11:54:54.425Z,38.77
2018-12-26T11:57:25.353Z,40.27
2018-12-26T11:59:56.237Z,40.00
2018-12-26T12:02:27.151Z,38.80
2018-12-26T12:04:58.357Z,37.93
2018-12-26T12:07:29.275Z,39.03
2018-12-26T12:10:00.448Z,39.27
2018-12-26T12:12:31.401Z,40.20
2018-12-26T12:15:02.489Z,41.73
2018-12-26T12:17:33.372Z,40.23
2018-12-26T12:20:05.116Z,38.80
2018-12-26T12:22:35.998Z,39.30
2018-12-26T12:25:06.974Z,38.47
2018-12-26T12:27:38.784Z,40.23
2018-12-26T12:30:09.827Z,39.73
2018-12-26T12:32:40.770Z,39.60
2018-12-26T12:35:11.805Z,39.73
2018-12-26T12:37:42.966Z,39.57
2018-12-26T12:40:14.412Z,39.60
2018-12-26T12:42:45.821Z,37.47
2018-12-26T12:45:17.030Z,37.53
2018-12-26T12:47:47.906Z,33.43
2018-12-26T12:50:18.836Z,34.70
2018-12-26T12:52:49.697Z,34.63
2018-12-26T12:55:20.659Z,33.20
2018-12-26T12:57:52.090Z,34.27
2018-12-26T13:00:23.021Z,33.87
2018-12-26T13:03:00.337Z,32.93
2018-12-26T13:05:26.835Z,32.90
2018-12-26T13:07:57.758Z,32.83
2018-12-26T13:10:28.636Z,32.70
2018-12-26T13:12:59.526Z,34.13
2018-12-26T13:15:30.468Z,33.90
2018-12-26T13:18:01.361Z,35.00
2018-12-26T13:20:32.566Z,35.13
2018-12-26T13:23:03.438Z,34.20
2018-12-26T13:25:34.613Z,36.00
2018-12-26T13:28:05.524Z,36.17
2018-12-26T13:30:49.083Z,35.90
2018-12-26T13:33:19.983Z,35.33
2018-12-26T13:35:50.884Z,36.17
2018-12-26T13:38:22.014Z,36.00
2018-12-26T13:40:53.295Z,37.03
2018-12-26T13:43:24.551Z,35.87
2018-12-26T13:45:55.460Z,37.20
2018-12-26T13:48:26.355Z,36.57
2018-12-26T13:50:57.280Z,33.93
2018-12-26T13:53:29.567Z,34.60
2018-12-26T13:56:00.598Z,35.70
2018-12-26T13:58:31.457Z,35.13
2018-12-26T14:01:02.332Z,36.70
2018-12-26T14:03:33.270Z,37.60
2018-12-26T14:06:04.186Z,38.37
2018-12-26T14:08:37.994Z,35.83
2018-12-26T14:11:08.878Z,38.50
2018-12-26T14:13:39.767Z,37.20
2018-12-26T14:16:10.715Z,36.47
2018-12-26T14:18:41.585Z,38.53
2018-12-26T14:21:12.818Z,37.93
2018-12-26T14:23:43.693Z,37.77
2018-12-26T14:26:14.695Z,37.50
2018-12-26T14:28:45.619Z,38.30
2018-12-26T14:31:16.512Z,35.80
2018-12-26T14:33:47.456Z,36.60
2018-12-26T14:36:18.359Z,36.23
2018-12-26T14:38:49.279Z,39.07
2018-12-26T14:41:20.205Z,36.00
2018-12-26T14:43:51.389Z,35.20
2018-12-26T14:46:22.321Z,38.97
2018-12-26T14:48:53.230Z,36.93
2018-12-26T14:51:26.564Z,35.30
2018-12-26T14:53:57.012Z,35.70
2018-12-26T14:56:27.913Z,36.07
2018-12-26T14:58:59.132Z,36.73
2018-12-26T15:01:30.042Z,36.90
2018-12-26T15:04:00.944Z,38.07
2018-12-26T15:06:32.182Z,35.40
2018-12-26T15:09:03.371Z,32.87
2018-12-26T15:11:34.646Z,35.63
2018-12-26T15:14:05.695Z,33.40
2018-12-26T15:16:36.665Z,36.40
2018-12-26T15:19:20.926Z,36.10
2018-12-26T15:21:51.905Z,33.67
2018-12-26T15:24:22.983Z,33.40
2018-12-26T15:26:53.896Z,33.70
2018-12-26T15:29:25.082Z,33.60
2018-12-26T15:31:56.058Z,34.20
2018-12-26T15:34:27.256Z,34.90
2018-12-26T15:36:58.206Z,35.23
2018-12-26T15:39:29.087Z,33.77
2018-12-26T15:42:00.049Z,37.40
2018-12-26T15:44:30.951Z,35.17
2018-12-26T15:47:01.880Z,35.33
2018-12-26T15:49:32.866Z,31.77
2018-12-26T15:52:04.342Z,32.80
2018-12-26T15:54:35.225Z,35.53
2018-12-26T15:57:06.149Z,32.90
2018-12-26T15:59:37.123Z,35.60
2018-12-26T16:02:08.446Z,36.00
2018-12-26T16:04:39.621Z,33.80
2018-12-26T16:07:10.546Z,36.13
2018-12-26T16:09:41.432Z,33.80
2018-12-26T16:12:12.616Z,33.17
2018-12-26T16:14:43.868Z,32.43
2018-12-26T16:17:15.084Z,34.40
2018-12-26T16:19:46.001Z,34.33
2018-12-26T16:22:16.913Z,33.67
2018-12-26T16:24:47.834Z,33.50
2018-12-26T16:27:18.812Z,30.77
2018-12-26T16:29:50.037Z,34.00
2018-12-26T16:32:20.982Z,32.80
2018-12-26T16:34:51.883Z,33.20
2018-12-26T16:37:23.157Z,32.50
2018-12-26T16:39:54.124Z,33.10
2018-12-26T16:42:25.023Z,33.77
2018-12-26T16:44:56.240Z,33.00
2018-12-26T16:47:27.107Z,32.47
2018-12-26T16:49:58.006Z,33.60
2018-12-26T16:52:28.904Z,33.07
2018-12-26T16:54:59.820Z,33.73
2018-12-26T16:57:30.793Z,31.97
2018-12-26T17:00:01.687Z,30.70
2018-12-26T17:02:32.687Z,31.60
2018-12-26T17:05:03.602Z,30.70
2018-12-26T17:07:34.508Z,32.43
2018-12-26T17:10:05.784Z,33.20
2018-12-26T17:12:36.660Z,32.07
2018-12-26T17:15:07.872Z,32.50
2018-12-26T17:17:38.795Z,34.87
2018-12-26T17:20:09.834Z,33.20
2018-12-26T17:22:41.155Z,35.00
2018-12-26T17:25:12.073Z,33.57
2018-12-26T17:27:42.969Z,33.33
2018-12-26T17:30:14.561Z,32.93
2018-12-26T17:32:45.735Z,31.00
2018-12-26T17:35:16.829Z,32.97
2018-12-26T17:37:47.719Z,32.80
2018-12-26T17:40:18.639Z,34.10
2018-12-26T17:42:49.841Z,35.47
2018-12-26T17:45:25.060Z,35.10
2018-12-26T17:47:56.106Z,35.50
2018-12-26T17:50:51.580Z,35.60
2018-12-26T17:54:01.187Z,32.90
2018-12-26T17:56:56.026Z,34.77
2018-12-26T17:59:38.828Z,32.03
2018-12-26T18:02:22.987Z,32.40
2018-12-26T18:04:53.991Z,35.27
2018-12-26T18:07:25.194Z,33.23
2018-12-26T18:09:56.448Z,35.37
2018-12-26T18:12:27.383Z,33.30
2018-12-26T18:14:58.296Z,35.43
2018-12-26T18:17:29.270Z,33.90
2018-12-26T18:20:00.513Z,32.93
2018-12-26T18:22:31.460Z,33.27
2018-12-26T18:25:02.368Z,31.70
2018-12-26T18:27:33.289Z,32.10
2018-12-26T18:30:05.722Z,33.20
2018-12-26T18:32:36.594Z,33.50
2018-12-26T18:35:08.543Z,33.90
2018-12-26T18:37:39.458Z,40.60
2018-12-26T18:40:10.843Z,33.70
2018-12-26T18:42:41.837Z,43.40
2018-12-26T18:45:13.084Z,32.80
2018-12-26T18:47:43.981Z,32.80
2018-12-26T18:50:15.212Z,30.50
2018-12-26T18:52:46.090Z,31.47
2018-12-26T18:55:17.102Z,33.00
2018-12-26T18:57:48.018Z,36.37
2018-12-26T19:00:18.900Z,34.60
2018-12-26T19:02:49.836Z,34.57
2018-12-26T19:05:20.742Z,43.63
2018-12-26T19:07:51.711Z,36.37
2018-12-26T19:10:22.597Z,35.10
2018-12-26T19:12:54.091Z,32.07
2018-12-26T19:15:25.331Z,33.87
2018-12-26T19:17:56.243Z,32.00
2018-12-26T19:20:27.441Z,31.60
2018-12-26T19:22:58.311Z,32.83
2018-12-26T19:25:29.215Z,29.30
2018-12-26T19:28:00.172Z,31.07
2018-12-26T19:30:31.148Z,28.47
2018-12-26T19:33:02.115Z,29.73
2018-12-26T19:35:33.009Z,43.60
2018-12-26T19:38:03.931Z,29.83
2018-12-26T19:40:35.098Z,29.23
2018-12-26T19:43:06.341Z,26.80
2018-12-26T19:45:37.214Z,30.47
2018-12-26T19:48:08.121Z,27.53
2018-12-26T19:50:39.142Z,28.23
2018-12-26T19:53:10.361Z,27.03
2018-12-26T19:55:41.294Z,25.07
2018-12-26T19:58:12.192Z,25.00
2018-12-26T20:00:43.501Z,25.73
2018-12-26T20:03:14.447Z,28.80
2018-12-26T20:05:45.339Z,27.87
2018-12-26T20:08:16.269Z,38.77
2018-12-26T20:10:47.455Z,30.67
2018-12-26T20:13:18.368Z,30.30
2018-12-26T20:15:49.277Z,26.33
2018-12-26T20:18:20.270Z,31.37
2018-12-26T20:20:51.195Z,26.40
2018-12-26T20:23:22.166Z,26.27
2018-12-26T20:25:53.185Z,27.13
2018-12-26T20:28:24.383Z,26.50
2018-12-26T20:30:55.629Z,25.10
2018-12-26T20:33:26.599Z,26.90
2018-12-26T20:35:57.489Z,26.27
2018-12-26T20:38:28.410Z,24.87
2018-12-26T20:40:59.283Z,24.87
2018-12-26T20:43:30.209Z,24.43
2018-12-26T20:46:01.167Z,25.77
2018-12-26T20:48:32.106Z,23.50
2018-12-26T20:51:03.274Z,24.77
2018-12-26T20:53:34.435Z,25.30
2018-12-26T20:56:05.631Z,24.83
2018-12-26T20:58:36.793Z,23.80
2018-12-26T21:01:07.707Z,23.60
2018-12-26T21:03:38.643Z,24.10
2018-12-26T21:06:09.574Z,23.17
2018-12-26T21:08:40.580Z,24.90
2018-12-26T21:11:11.748Z,24.53
2018-12-26T21:13:43.811Z,22.87
2018-12-26T21:16:14.897Z,23.93
2018-12-26T21:18:46.403Z,23.07
2018-12-26T21:21:17.355Z,20.30
2018-12-26T21:23:48.369Z,22.80
2018-12-26T21:26:19.274Z,22.30
2018-12-26T21:28:50.237Z,21.27
2018-12-26T21:31:21.268Z,21.33
2018-12-26T21:33:52.234Z,34.33
2018-12-26T21:36:23.128Z,24.80
2018-12-26T21:38:54.048Z,21.10
2018-12-26T21:41:25.017Z,23.60
2018-12-26T21:43:55.942Z,22.73
2018-12-26T21:46:27.132Z,23.73
2018-12-26T21:48:58.317Z,23.80
2018-12-26T21:51:29.317Z,22.50
2018-12-26T21:54:00.207Z,24.50
2018-12-26T21:56:31.153Z,22.80
2018-12-26T21:59:02.053Z,25.07
2018-12-26T22:01:33.016Z,22.80
2018-12-26T22:04:04.235Z,24.30
2018-12-26T22:06:35.440Z,25.00
2018-12-26T22:09:08.570Z,26.57
2018-12-26T22:11:39.746Z,27.13
2018-12-26T22:14:10.645Z,23.70
2018-12-26T22:16:41.607Z,23.60
2018-12-26T22:19:12.953Z,24.93
2018-12-26T22:21:43.998Z,25.17
2018-12-26T22:24:14.912Z,26.43
2018-12-26T22:26:45.808Z,26.73
2018-12-26T22:29:16.720Z,25.30
2018-12-26T22:31:47.642Z,27.40
2018-12-26T22:34:18.572Z,26.20
2018-12-26T22:36:49.478Z,22.93
2018-12-26T22:39:20.720Z,25.57
2018-12-26T22:41:51.651Z,24.60
2018-12-26T22:44:27.759Z,25.70
2018-12-26T22:46:55.187Z,25.90
2018-12-26T22:49:26.107Z,25.37
2018-12-26T22:51:57.013Z,23.27
2018-12-26T22:54:27.945Z,26.03
2018-12-26T22:56:59.147Z,24.60
2018-12-26T22:59:30.370Z,24.23
2018-12-26T23:02:01.617Z,25.40
2018-12-26T23:04:32.582Z,26.27
2018-12-26T23:07:03.543Z,26.23
2018-12-26T23:09:34.749Z,25.50
2018-12-26T23:12:05.678Z,26.07
2018-12-26T23:14:36.577Z,24.50
2018-12-26T23:17:07.544Z,26.30
2018-12-26T23:19:38.442Z,26.73
2018-12-26T23:22:09.326Z,26.37
2018-12-26T23:24:40.550Z,27.10
2018-12-26T23:27:11.455Z,28.67
2018-12-26T23:29:42.383Z,27.97
2018-12-26T23:32:13.274Z,27.30
2018-12-26T23:34:44.249Z,25.90
2018-12-26T23:37:15.192Z,25.47
2018-12-26T23:39:46.407Z,25.77
2018-12-26T23:42:17.375Z,29.13
2018-12-26T23:44:48.826Z,28.37
2018-12-26T23:47:19.728Z,25.07
2018-12-26T23:49:50.985Z,25.90
2018-12-26T23:52:21.859Z,24.77
2018-12-26T23:54:53.112Z,25.67
2018-12-26T23:57:24.306Z,25.00
2018-12-26T23:59:55.182Z,24.67
